sensor_id;sensor_type;location;lat;lon;timestamp;pressure;altitude;pressure_sealevel;temperature;humidity
44127;BME280;29786;50.798;7.302;2022-08-19T00:00:09;98940;;;18.99;100
44127;BME280;29786;50.798;7.302;2022-08-19T00:01:09;98940;;;18.99;100
44127;BME280;29786;50.798;7.302;2022-08-19T00:02:09;98930;;;18.95;100
44127;BME280;29786;50.798;7.302;2022-08-19T00:03:09;98930;;;18.92;100
44127;BME280;29786;50.798;7.302;2022-08-19T00:04:10;98930;;;18.87;100
44127;BME280;29786;50.798;7.302;2022-08-19T00:05:09;98930;;;18.83;100
44127;BME280;29786;50.798;7.302;2022-08-19T00:06:09;98940;;;18.79;100
44127;BME280;29786;50.798;7.302;2022-08-19T00:07:09;98940;;;18.75;100
44127;BME280;29786;50.798;7.302;2022-08-19T00:08:09;98940;;;18.69;100
44127;BME280;29786;50.798;7.302;2022-08-19T00:09:10;98940;;;18.68;100
44127;BME280;29786;50.798;7.302;2022-08-19T00:10:09;98940;;;18.68;100
44127;BME280;29786;50.798;7.302;2022-08-19T00:11:09;98940;;;18.69;100
44127;BME280;29786;50.798;7.302;2022-08-19T00:12:09;98940;;;18.71;100
44127;BME280;29786;50.798;7.302;2022-08-19T00:13:09;98940;;;18.7;100
44127;BME280;29786;50.798;7.302;2022-08-19T00:14:10;98940;;;18.7;100
44127;BME280;29786;50.798;7.302;2022-08-19T00:15:10;98940;;;18.73;100
44127;BME280;29786;50.798;7.302;2022-08-19T00:16:09;98940;;;18.75;100
44127;BME280;29786;50.798;7.302;2022-08-19T00:17:09;98940;;;18.74;100
44127;BME280;29786;50.798;7.302;2022-08-19T00:18:09;98940;;;18.77;100
44127;BME280;29786;50.798;7.302;2022-08-19T00:19:09;98940;;;18.77;100
44127;BME280;29786;50.798;7.302;2022-08-19T00:20:10;98940;;;18.83;100
44127;BME280;29786;50.798;7.302;2022-08-19T00:21:09;98950;;;18.86;100
44127;BME280;29786;50.798;7.302;2022-08-19T00:22:09;98950;;;18.87;100
44127;BME280;29786;50.798;7.302;2022-08-19T00:23:09;98950;;;18.87;100
44127;BME280;29786;50.798;7.302;2022-08-19T00:24:09;98950;;;18.92;100
44127;BME280;29786;50.798;7.302;2022-08-19T00:25:09;98960;;;19;100
44127;BME280;29786;50.798;7.302;2022-08-19T00:26:09;98960;;;19.03;100
44127;BME280;29786;50.798;7.302;2022-08-19T00:27:09;98960;;;19.1;100
44127;BME280;29786;50.798;7.302;2022-08-19T00:28:09;98960;;;19.12;100
44127;BME280;29786;50.798;7.302;2022-08-19T00:29:09;98960;;;19.24;100
44127;BME280;29786;50.798;7.302;2022-08-19T00:30:09;98950;;;19.32;100
44127;BME280;29786;50.798;7.302;2022-08-19T00:31:09;98950;;;19.31;100
44127;BME280;29786;50.798;7.302;2022-08-19T00:32:09;98950;;;19.27;100
44127;BME280;29786;50.798;7.302;2022-08-19T00:33:09;98950;;;19.27;100
44127;BME280;29786;50.798;7.302;2022-08-19T00:34:09;98960;;;19.31;100
44127;BME280;29786;50.798;7.302;2022-08-19T00:35:09;98960;;;19.24;100
44127;BME280;29786;50.798;7.302;2022-08-19T00:36:09;98950;;;19.2;100
44127;BME280;29786;50.798;7.302;2022-08-19T00:37:09;98960;;;19.23;100
44127;BME280;29786;50.798;7.302;2022-08-19T00:38:09;98950;;;19.2;100
44127;BME280;29786;50.798;7.302;2022-08-19T00:39:09;98960;;;19.21;100
44127;BME280;29786;50.798;7.302;2022-08-19T00:40:09;98960;;;19.21;100
44127;BME280;29786;50.798;7.302;2022-08-19T00:41:09;98960;;;19.23;100
44127;BME280;29786;50.798;7.302;2022-08-19T00:42:09;98960;;;19.23;100
44127;BME280;29786;50.798;7.302;2022-08-19T00:43:10;98960;;;19.2;100
44127;BME280;29786;50.798;7.302;2022-08-19T00:44:11;98960;;;19.14;100
44127;BME280;29786;50.798;7.302;2022-08-19T00:45:11;98960;;;19.21;100
44127;BME280;29786;50.798;7.302;2022-08-19T00:46:09;98970;;;19.23;100
44127;BME280;29786;50.798;7.302;2022-08-19T00:47:09;98970;;;19.11;100
44127;BME280;29786;50.798;7.302;2022-08-19T00:48:09;98960;;;19.04;100
44127;BME280;29786;50.798;7.302;2022-08-19T00:49:11;98960;;;18.95;100
44127;BME280;29786;50.798;7.302;2022-08-19T00:50:10;98960;;;18.87;100
44127;BME280;29786;50.798;7.302;2022-08-19T00:51:09;98960;;;18.77;100
44127;BME280;29786;50.798;7.302;2022-08-19T00:52:11;98960;;;18.7;100
44127;BME280;29786;50.798;7.302;2022-08-19T00:53:09;98950;;;18.65;100
44127;BME280;29786;50.798;7.302;2022-08-19T00:54:09;98950;;;18.68;100
44127;BME280;29786;50.798;7.302;2022-08-19T00:55:09;98950;;;18.75;100
44127;BME280;29786;50.798;7.302;2022-08-19T00:56:09;98950;;;18.74;100
44127;BME280;29786;50.798;7.302;2022-08-19T00:57:10;98950;;;18.7;100
44127;BME280;29786;50.798;7.302;2022-08-19T00:58:10;98950;;;18.76;100
44127;BME280;29786;50.798;7.302;2022-08-19T00:59:09;98950;;;18.79;100
44127;BME280;29786;50.798;7.302;2022-08-19T01:00:11;98950;;;18.84;100
44127;BME280;29786;50.798;7.302;2022-08-19T01:01:09;98950;;;18.98;100
44127;BME280;29786;50.798;7.302;2022-08-19T01:02:09;98950;;;19.06;100
44127;BME280;29786;50.798;7.302;2022-08-19T01:03:10;98960;;;19.1;100
44127;BME280;29786;50.798;7.302;2022-08-19T01:04:09;98950;;;19.17;100
44127;BME280;29786;50.798;7.302;2022-08-19T01:05:11;98950;;;19.25;100
44127;BME280;29786;50.798;7.302;2022-08-19T01:06:09;98950;;;19.26;100
44127;BME280;29786;50.798;7.302;2022-08-19T01:07:09;98950;;;19.26;100
44127;BME280;29786;50.798;7.302;2022-08-19T01:08:09;98950;;;19.2;100
44127;BME280;29786;50.798;7.302;2022-08-19T01:09:09;98950;;;19.12;100
44127;BME280;29786;50.798;7.302;2022-08-19T01:10:10;98940;;;19.09;100
44127;BME280;29786;50.798;7.302;2022-08-19T01:11:09;98950;;;19.04;100
44127;BME280;29786;50.798;7.302;2022-08-19T01:12:09;98940;;;19.03;100
44127;BME280;29786;50.798;7.302;2022-08-19T01:13:09;98940;;;19;100
44127;BME280;29786;50.798;7.302;2022-08-19T01:14:09;98930;;;18.94;100
44127;BME280;29786;50.798;7.302;2022-08-19T01:15:10;98940;;;18.91;100
44127;BME280;29786;50.798;7.302;2022-08-19T01:16:09;98930;;;18.96;100
44127;BME280;29786;50.798;7.302;2022-08-19T01:17:10;98930;;;19.04;100
44127;BME280;29786;50.798;7.302;2022-08-19T01:18:09;98930;;;19.2;100
44127;BME280;29786;50.798;7.302;2022-08-19T01:19:12;98930;;;19.29;100
44127;BME280;29786;50.798;7.302;2022-08-19T01:20:10;98930;;;19.29;100
44127;BME280;29786;50.798;7.302;2022-08-19T01:21:10;98930;;;19.23;100
44127;BME280;29786;50.798;7.302;2022-08-19T01:22:12;98920;;;19.17;100
44127;BME280;29786;50.798;7.302;2022-08-19T01:23:09;98920;;;19.1;100
44127;BME280;29786;50.798;7.302;2022-08-19T01:24:09;98920;;;19.02;100
44127;BME280;29786;50.798;7.302;2022-08-19T01:25:09;98920;;;18.96;100
44127;BME280;29786;50.798;7.302;2022-08-19T01:26:13;98930;;;18.89;100
44127;BME280;29786;50.798;7.302;2022-08-19T01:27:09;98930;;;18.84;100
44127;BME280;29786;50.798;7.302;2022-08-19T01:28:14;98930;;;18.79;100
44127;BME280;29786;50.798;7.302;2022-08-19T01:29:09;98930;;;18.69;100
44127;BME280;29786;50.798;7.302;2022-08-19T01:30:10;98930;;;18.6;100
44127;BME280;29786;50.798;7.302;2022-08-19T01:31:10;98930;;;18.5;100
44127;BME280;29786;50.798;7.302;2022-08-19T01:32:10;98930;;;18.37;100
44127;BME280;29786;50.798;7.302;2022-08-19T01:33:09;98930;;;18.35;100
44127;BME280;29786;50.798;7.302;2022-08-19T01:34:09;98930;;;18.31;100
44127;BME280;29786;50.798;7.302;2022-08-19T01:35:09;98930;;;18.17;100
44127;BME280;29786;50.798;7.302;2022-08-19T01:36:11;98930;;;18.01;100
44127;BME280;29786;50.798;7.302;2022-08-19T01:37:09;98930;;;17.93;100
44127;BME280;29786;50.798;7.302;2022-08-19T01:38:10;98940;;;17.92;100
44127;BME280;29786;50.798;7.302;2022-08-19T01:39:11;98930;;;17.9;100
44127;BME280;29786;50.798;7.302;2022-08-19T01:40:09;98930;;;17.91;100
44127;BME280;29786;50.798;7.302;2022-08-19T01:41:10;98940;;;17.92;100
44127;BME280;29786;50.798;7.302;2022-08-19T01:42:09;98940;;;17.93;100
44127;BME280;29786;50.798;7.302;2022-08-19T01:43:09;98940;;;17.99;100
44127;BME280;29786;50.798;7.302;2022-08-19T01:44:09;98940;;;18.04;100
44127;BME280;29786;50.798;7.302;2022-08-19T01:45:09;98950;;;18.15;100
44127;BME280;29786;50.798;7.302;2022-08-19T01:46:09;98940;;;18.19;100
44127;BME280;29786;50.798;7.302;2022-08-19T01:47:09;98940;;;18.28;100
44127;BME280;29786;50.798;7.302;2022-08-19T01:48:09;98940;;;18.33;100
44127;BME280;29786;50.798;7.302;2022-08-19T01:49:09;98940;;;18.37;100
44127;BME280;29786;50.798;7.302;2022-08-19T01:50:10;98940;;;18.48;100
44127;BME280;29786;50.798;7.302;2022-08-19T01:51:09;98940;;;18.64;100
44127;BME280;29786;50.798;7.302;2022-08-19T01:52:09;98940;;;18.7;100
44127;BME280;29786;50.798;7.302;2022-08-19T01:53:10;98940;;;18.77;100
44127;BME280;29786;50.798;7.302;2022-08-19T01:54:10;98940;;;18.77;100
44127;BME280;29786;50.798;7.302;2022-08-19T01:55:10;98940;;;18.7;100
44127;BME280;29786;50.798;7.302;2022-08-19T01:56:09;98940;;;18.66;100
44127;BME280;29786;50.798;7.302;2022-08-19T01:57:10;98940;;;18.6;100
44127;BME280;29786;50.798;7.302;2022-08-19T01:58:13;98940;;;18.66;100
44127;BME280;29786;50.798;7.302;2022-08-19T01:59:12;98940;;;18.65;100
44127;BME280;29786;50.798;7.302;2022-08-19T02:00:10;98940;;;18.7;100
44127;BME280;29786;50.798;7.302;2022-08-19T02:01:09;98950;;;18.66;100
44127;BME280;29786;50.798;7.302;2022-08-19T02:02:09;98940;;;18.66;100
44127;BME280;29786;50.798;7.302;2022-08-19T02:03:09;98950;;;18.6;100
44127;BME280;29786;50.798;7.302;2022-08-19T02:04:09;98950;;;18.65;100
44127;BME280;29786;50.798;7.302;2022-08-19T02:05:09;98940;;;18.69;100
44127;BME280;29786;50.798;7.302;2022-08-19T02:06:09;98940;;;18.64;100
44127;BME280;29786;50.798;7.302;2022-08-19T02:07:09;98940;;;18.61;100
44127;BME280;29786;50.798;7.302;2022-08-19T02:08:10;98940;;;18.64;100
44127;BME280;29786;50.798;7.302;2022-08-19T02:09:09;98930;;;18.59;100
44127;BME280;29786;50.798;7.302;2022-08-19T02:10:10;98930;;;18.58;100
44127;BME280;29786;50.798;7.302;2022-08-19T02:11:09;98930;;;18.54;100
44127;BME280;29786;50.798;7.302;2022-08-19T02:12:09;98920;;;18.5;100
44127;BME280;29786;50.798;7.302;2022-08-19T02:13:09;98930;;;18.45;100
44127;BME280;29786;50.798;7.302;2022-08-19T02:14:09;98930;;;18.51;100
44127;BME280;29786;50.798;7.302;2022-08-19T02:15:09;98920;;;18.51;100
44127;BME280;29786;50.798;7.302;2022-08-19T02:16:09;98930;;;18.53;100
44127;BME280;29786;50.798;7.302;2022-08-19T02:17:09;98920;;;18.57;100
44127;BME280;29786;50.798;7.302;2022-08-19T02:18:09;98920;;;18.56;100
44127;BME280;29786;50.798;7.302;2022-08-19T02:19:09;98930;;;18.54;100
44127;BME280;29786;50.798;7.302;2022-08-19T02:20:09;98930;;;18.54;100
44127;BME280;29786;50.798;7.302;2022-08-19T02:21:09;98930;;;18.5;100
44127;BME280;29786;50.798;7.302;2022-08-19T02:22:09;98930;;;18.4;100
44127;BME280;29786;50.798;7.302;2022-08-19T02:23:09;98920;;;18.41;100
44127;BME280;29786;50.798;7.302;2022-08-19T02:24:09;98930;;;18.44;100
44127;BME280;29786;50.798;7.302;2022-08-19T02:25:10;98920;;;18.45;100
44127;BME280;29786;50.798;7.302;2022-08-19T02:26:09;98920;;;18.44;100
44127;BME280;29786;50.798;7.302;2022-08-19T02:27:09;98930;;;18.52;100
44127;BME280;29786;50.798;7.302;2022-08-19T02:28:09;98920;;;18.5;100
44127;BME280;29786;50.798;7.302;2022-08-19T02:29:09;98920;;;18.51;100
44127;BME280;29786;50.798;7.302;2022-08-19T02:30:11;98930;;;18.49;100
44127;BME280;29786;50.798;7.302;2022-08-19T02:31:10;98930;;;18.43;100
44127;BME280;29786;50.798;7.302;2022-08-19T02:32:09;98930;;;18.4;100
44127;BME280;29786;50.798;7.302;2022-08-19T02:33:09;98930;;;18.45;100
44127;BME280;29786;50.798;7.302;2022-08-19T02:34:09;98930;;;18.43;100
44127;BME280;29786;50.798;7.302;2022-08-19T02:35:09;98940;;;18.43;100
44127;BME280;29786;50.798;7.302;2022-08-19T02:36:09;98930;;;18.32;100
44127;BME280;29786;50.798;7.302;2022-08-19T02:37:09;98930;;;18.33;100
44127;BME280;29786;50.798;7.302;2022-08-19T02:38:09;98940;;;18.27;100
44127;BME280;29786;50.798;7.302;2022-08-19T02:39:09;98940;;;18.27;100
44127;BME280;29786;50.798;7.302;2022-08-19T02:40:09;98950;;;18.29;100
44127;BME280;29786;50.798;7.302;2022-08-19T02:41:13;98940;;;18.34;100
44127;BME280;29786;50.798;7.302;2022-08-19T02:42:09;98950;;;18.36;100
44127;BME280;29786;50.798;7.302;2022-08-19T02:43:09;98950;;;18.31;100
44127;BME280;29786;50.798;7.302;2022-08-19T02:44:09;98940;;;18.34;100
44127;BME280;29786;50.798;7.302;2022-08-19T02:45:09;98940;;;18.37;100
44127;BME280;29786;50.798;7.302;2022-08-19T02:46:18;98950;;;18.29;100
44127;BME280;29786;50.798;7.302;2022-08-19T02:47:09;98950;;;18.24;100
44127;BME280;29786;50.798;7.302;2022-08-19T02:48:09;98950;;;18.25;100
44127;BME280;29786;50.798;7.302;2022-08-19T02:49:09;98950;;;18.39;100
44127;BME280;29786;50.798;7.302;2022-08-19T02:50:09;98940;;;18.37;100
44127;BME280;29786;50.798;7.302;2022-08-19T02:51:09;98950;;;18.34;100
44127;BME280;29786;50.798;7.302;2022-08-19T02:52:09;98950;;;18.27;100
44127;BME280;29786;50.798;7.302;2022-08-19T02:53:09;98950;;;18.34;100
44127;BME280;29786;50.798;7.302;2022-08-19T02:54:10;98950;;;18.33;100
44127;BME280;29786;50.798;7.302;2022-08-19T02:55:09;98940;;;18.36;100
44127;BME280;29786;50.798;7.302;2022-08-19T02:56:09;98940;;;18.37;100
44127;BME280;29786;50.798;7.302;2022-08-19T02:57:09;98950;;;18.36;100
44127;BME280;29786;50.798;7.302;2022-08-19T02:58:09;98940;;;18.41;100
44127;BME280;29786;50.798;7.302;2022-08-19T02:59:09;98940;;;18.39;100
44127;BME280;29786;50.798;7.302;2022-08-19T03:00:09;98940;;;18.43;100
44127;BME280;29786;50.798;7.302;2022-08-19T03:01:09;98940;;;18.42;100
44127;BME280;29786;50.798;7.302;2022-08-19T03:02:09;98940;;;18.36;100
44127;BME280;29786;50.798;7.302;2022-08-19T03:03:09;98940;;;18.26;100
44127;BME280;29786;50.798;7.302;2022-08-19T03:04:10;98950;;;18.17;100
44127;BME280;29786;50.798;7.302;2022-08-19T03:05:09;98940;;;18.12;100
44127;BME280;29786;50.798;7.302;2022-08-19T03:06:10;98940;;;18.04;100
44127;BME280;29786;50.798;7.302;2022-08-19T03:07:09;98940;;;17.96;100
44127;BME280;29786;50.798;7.302;2022-08-19T03:08:09;98950;;;17.89;100
44127;BME280;29786;50.798;7.302;2022-08-19T03:09:09;98950;;;17.81;100
44127;BME280;29786;50.798;7.302;2022-08-19T03:10:09;98940;;;17.76;100
44127;BME280;29786;50.798;7.302;2022-08-19T03:11:13;98940;;;17.71;100
44127;BME280;29786;50.798;7.302;2022-08-19T03:12:09;98940;;;17.67;100
44127;BME280;29786;50.798;7.302;2022-08-19T03:13:10;98940;;;17.61;100
44127;BME280;29786;50.798;7.302;2022-08-19T03:14:09;98940;;;17.56;100
44127;BME280;29786;50.798;7.302;2022-08-19T03:15:09;98950;;;17.46;100
44127;BME280;29786;50.798;7.302;2022-08-19T03:16:09;98950;;;17.43;100
44127;BME280;29786;50.798;7.302;2022-08-19T03:17:09;98950;;;17.37;100
44127;BME280;29786;50.798;7.302;2022-08-19T03:18:09;98940;;;17.32;100
44127;BME280;29786;50.798;7.302;2022-08-19T03:19:09;98950;;;17.27;100
44127;BME280;29786;50.798;7.302;2022-08-19T03:20:09;98940;;;17.27;100
44127;BME280;29786;50.798;7.302;2022-08-19T03:21:09;98940;;;17.27;100
44127;BME280;29786;50.798;7.302;2022-08-19T03:22:09;98940;;;17.26;100
44127;BME280;29786;50.798;7.302;2022-08-19T03:23:09;98940;;;17.27;100
44127;BME280;29786;50.798;7.302;2022-08-19T03:24:09;98940;;;17.24;100
44127;BME280;29786;50.798;7.302;2022-08-19T03:25:09;98940;;;17.2;100
44127;BME280;29786;50.798;7.302;2022-08-19T03:26:09;98950;;;17.16;100
44127;BME280;29786;50.798;7.302;2022-08-19T03:27:09;98940;;;17.11;100
44127;BME280;29786;50.798;7.302;2022-08-19T03:28:10;98950;;;17.07;100
44127;BME280;29786;50.798;7.302;2022-08-19T03:29:09;98950;;;17.03;100
44127;BME280;29786;50.798;7.302;2022-08-19T03:30:09;98950;;;16.98;100
44127;BME280;29786;50.798;7.302;2022-08-19T03:31:10;98950;;;16.98;100
44127;BME280;29786;50.798;7.302;2022-08-19T03:32:09;98950;;;16.95;100
44127;BME280;29786;50.798;7.302;2022-08-19T03:33:09;98950;;;16.95;100
44127;BME280;29786;50.798;7.302;2022-08-19T03:34:10;98960;;;16.98;100
44127;BME280;29786;50.798;7.302;2022-08-19T03:35:09;98950;;;16.99;100
44127;BME280;29786;50.798;7.302;2022-08-19T03:36:11;98950;;;17.04;100
44127;BME280;29786;50.798;7.302;2022-08-19T03:37:10;98950;;;17.06;100
44127;BME280;29786;50.798;7.302;2022-08-19T03:38:09;98950;;;17.07;100
44127;BME280;29786;50.798;7.302;2022-08-19T03:39:09;98950;;;17.06;100
44127;BME280;29786;50.798;7.302;2022-08-19T03:40:09;98950;;;17.07;100
44127;BME280;29786;50.798;7.302;2022-08-19T03:41:11;98950;;;17.08;100
44127;BME280;29786;50.798;7.302;2022-08-19T03:42:09;98950;;;17.1;100
44127;BME280;29786;50.798;7.302;2022-08-19T03:43:09;98950;;;17.19;100
44127;BME280;29786;50.798;7.302;2022-08-19T03:44:09;98950;;;17.21;100
44127;BME280;29786;50.798;7.302;2022-08-19T03:45:09;98950;;;17.29;100
44127;BME280;29786;50.798;7.302;2022-08-19T03:46:10;98960;;;17.35;100
44127;BME280;29786;50.798;7.302;2022-08-19T03:47:09;98960;;;17.34;100
44127;BME280;29786;50.798;7.302;2022-08-19T03:48:09;98960;;;17.45;100
44127;BME280;29786;50.798;7.302;2022-08-19T03:49:09;98950;;;17.53;100
44127;BME280;29786;50.798;7.302;2022-08-19T03:50:09;98960;;;17.54;100
44127;BME280;29786;50.798;7.302;2022-08-19T03:51:17;98950;;;17.56;100
44127;BME280;29786;50.798;7.302;2022-08-19T03:52:09;98960;;;17.57;100
44127;BME280;29786;50.798;7.302;2022-08-19T03:53:09;98960;;;17.54;100
44127;BME280;29786;50.798;7.302;2022-08-19T03:54:11;98960;;;17.48;100
44127;BME280;29786;50.798;7.302;2022-08-19T03:55:09;98960;;;17.45;100
44127;BME280;29786;50.798;7.302;2022-08-19T03:56:09;98960;;;17.4;100
44127;BME280;29786;50.798;7.302;2022-08-19T03:57:09;98960;;;17.32;100
44127;BME280;29786;50.798;7.302;2022-08-19T03:58:09;98960;;;17.27;100
44127;BME280;29786;50.798;7.302;2022-08-19T03:59:10;98960;;;17.24;100
44127;BME280;29786;50.798;7.302;2022-08-19T04:00:09;98960;;;17.17;100
44127;BME280;29786;50.798;7.302;2022-08-19T04:01:10;98970;;;17.16;100
44127;BME280;29786;50.798;7.302;2022-08-19T04:02:10;98960;;;17.11;100
44127;BME280;29786;50.798;7.302;2022-08-19T04:03:09;98970;;;17.08;100
44127;BME280;29786;50.798;7.302;2022-08-19T04:04:09;98970;;;17.04;100
44127;BME280;29786;50.798;7.302;2022-08-19T04:05:09;98970;;;17.03;100
44127;BME280;29786;50.798;7.302;2022-08-19T04:06:10;98970;;;16.99;100
44127;BME280;29786;50.798;7.302;2022-08-19T04:07:09;98970;;;16.99;100
44127;BME280;29786;50.798;7.302;2022-08-19T04:08:09;98970;;;16.99;100
44127;BME280;29786;50.798;7.302;2022-08-19T04:09:10;98970;;;16.96;100
44127;BME280;29786;50.798;7.302;2022-08-19T04:10:09;98970;;;16.99;100
44127;BME280;29786;50.798;7.302;2022-08-19T04:11:09;98980;;;16.99;100
44127;BME280;29786;50.798;7.302;2022-08-19T04:12:09;98980;;;17;100
44127;BME280;29786;50.798;7.302;2022-08-19T04:13:09;98980;;;17.02;100
44127;BME280;29786;50.798;7.302;2022-08-19T04:14:10;98980;;;17.02;100
44127;BME280;29786;50.798;7.302;2022-08-19T04:15:09;98980;;;17.04;100
44127;BME280;29786;50.798;7.302;2022-08-19T04:16:09;98980;;;17.03;100
44127;BME280;29786;50.798;7.302;2022-08-19T04:17:09;98970;;;17.04;100
44127;BME280;29786;50.798;7.302;2022-08-19T04:18:09;98980;;;17.01;100
44127;BME280;29786;50.798;7.302;2022-08-19T04:19:09;98980;;;17;100
44127;BME280;29786;50.798;7.302;2022-08-19T04:20:09;98970;;;16.99;100
44127;BME280;29786;50.798;7.302;2022-08-19T04:21:14;98970;;;16.96;100
44127;BME280;29786;50.798;7.302;2022-08-19T04:22:09;98970;;;16.95;100
44127;BME280;29786;50.798;7.302;2022-08-19T04:23:09;98970;;;16.92;100
44127;BME280;29786;50.798;7.302;2022-08-19T04:24:09;98970;;;16.91;100
44127;BME280;29786;50.798;7.302;2022-08-19T04:25:09;98970;;;16.9;100
44127;BME280;29786;50.798;7.302;2022-08-19T04:26:13;98970;;;16.87;100
44127;BME280;29786;50.798;7.302;2022-08-19T04:27:09;98970;;;16.89;100
44127;BME280;29786;50.798;7.302;2022-08-19T04:28:10;98970;;;16.87;100
44127;BME280;29786;50.798;7.302;2022-08-19T04:29:11;98970;;;16.85;100
44127;BME280;29786;50.798;7.302;2022-08-19T04:30:09;98970;;;16.82;100
44127;BME280;29786;50.798;7.302;2022-08-19T04:31:13;98970;;;16.81;100
44127;BME280;29786;50.798;7.302;2022-08-19T04:32:09;98970;;;16.82;100
44127;BME280;29786;50.798;7.302;2022-08-19T04:33:10;98970;;;16.81;100
44127;BME280;29786;50.798;7.302;2022-08-19T04:34:09;98970;;;16.81;100
44127;BME280;29786;50.798;7.302;2022-08-19T04:35:09;98970;;;16.81;100
44127;BME280;29786;50.798;7.302;2022-08-19T04:36:19;98970;;;16.81;100
44127;BME280;29786;50.798;7.302;2022-08-19T04:37:09;98970;;;16.79;100
44127;BME280;29786;50.798;7.302;2022-08-19T04:38:09;98970;;;16.81;100
44127;BME280;29786;50.798;7.302;2022-08-19T04:39:11;98970;;;16.84;100
44127;BME280;29786;50.798;7.302;2022-08-19T04:40:09;98980;;;16.86;100
44127;BME280;29786;50.798;7.302;2022-08-19T04:41:09;98980;;;16.87;100
44127;BME280;29786;50.798;7.302;2022-08-19T04:42:09;98970;;;16.86;100
44127;BME280;29786;50.798;7.302;2022-08-19T04:43:09;98980;;;16.79;100
44127;BME280;29786;50.798;7.302;2022-08-19T04:44:09;98980;;;16.83;100
44127;BME280;29786;50.798;7.302;2022-08-19T04:45:11;98980;;;16.87;100
44127;BME280;29786;50.798;7.302;2022-08-19T04:46:10;98990;;;16.95;100
44127;BME280;29786;50.798;7.302;2022-08-19T04:47:09;98990;;;17;100
44127;BME280;29786;50.798;7.302;2022-08-19T04:48:09;98980;;;16.99;100
44127;BME280;29786;50.798;7.302;2022-08-19T04:49:09;98990;;;17.04;100
44127;BME280;29786;50.798;7.302;2022-08-19T04:50:09;98990;;;17.02;100
44127;BME280;29786;50.798;7.302;2022-08-19T04:51:10;98990;;;17;100
44127;BME280;29786;50.798;7.302;2022-08-19T04:52:09;98990;;;17.09;100
44127;BME280;29786;50.798;7.302;2022-08-19T04:53:09;98980;;;17.16;100
44127;BME280;29786;50.798;7.302;2022-08-19T04:54:09;98990;;;17.16;100
44127;BME280;29786;50.798;7.302;2022-08-19T04:55:10;98990;;;17.17;100
44127;BME280;29786;50.798;7.302;2022-08-19T04:56:10;98990;;;17.16;100
44127;BME280;29786;50.798;7.302;2022-08-19T04:57:09;98990;;;17.12;100
44127;BME280;29786;50.798;7.302;2022-08-19T04:58:09;98990;;;17.11;100
44127;BME280;29786;50.798;7.302;2022-08-19T04:59:09;99000;;;17.1;100
44127;BME280;29786;50.798;7.302;2022-08-19T05:00:09;99000;;;17.07;100
44127;BME280;29786;50.798;7.302;2022-08-19T05:01:11;99000;;;17;100
44127;BME280;29786;50.798;7.302;2022-08-19T05:02:09;99000;;;16.99;100
44127;BME280;29786;50.798;7.302;2022-08-19T05:03:09;99000;;;16.98;100
44127;BME280;29786;50.798;7.302;2022-08-19T05:04:09;99000;;;16.96;100
44127;BME280;29786;50.798;7.302;2022-08-19T05:05:09;99000;;;16.96;100
44127;BME280;29786;50.798;7.302;2022-08-19T05:06:10;99000;;;16.94;100
44127;BME280;29786;50.798;7.302;2022-08-19T05:07:09;99000;;;16.95;100
44127;BME280;29786;50.798;7.302;2022-08-19T05:08:10;99000;;;16.91;100
44127;BME280;29786;50.798;7.302;2022-08-19T05:09:09;99000;;;16.87;100
44127;BME280;29786;50.798;7.302;2022-08-19T05:10:09;99000;;;16.86;100
44127;BME280;29786;50.798;7.302;2022-08-19T05:11:10;99000;;;16.86;100
44127;BME280;29786;50.798;7.302;2022-08-19T05:12:09;99000;;;16.87;100
44127;BME280;29786;50.798;7.302;2022-08-19T05:13:09;99000;;;16.87;100
44127;BME280;29786;50.798;7.302;2022-08-19T05:14:09;99000;;;16.91;100
44127;BME280;29786;50.798;7.302;2022-08-19T05:15:09;99010;;;16.92;100
44127;BME280;29786;50.798;7.302;2022-08-19T05:16:10;99010;;;16.95;100
44127;BME280;29786;50.798;7.302;2022-08-19T05:17:09;99010;;;16.96;100
44127;BME280;29786;50.798;7.302;2022-08-19T05:18:09;99010;;;17.02;100
44127;BME280;29786;50.798;7.302;2022-08-19T05:19:09;99010;;;17.04;100
44127;BME280;29786;50.798;7.302;2022-08-19T05:20:09;99010;;;17.06;100
44127;BME280;29786;50.798;7.302;2022-08-19T05:21:10;99010;;;17.08;100
44127;BME280;29786;50.798;7.302;2022-08-19T05:22:09;99010;;;17.11;100
44127;BME280;29786;50.798;7.302;2022-08-19T05:23:10;99010;;;17.1;100
44127;BME280;29786;50.798;7.302;2022-08-19T05:24:09;99010;;;17.18;100
44127;BME280;29786;50.798;7.302;2022-08-19T05:25:12;99010;;;17.23;100
44127;BME280;29786;50.798;7.302;2022-08-19T05:26:09;99010;;;17.27;100
44127;BME280;29786;50.798;7.302;2022-08-19T05:27:09;99010;;;17.29;100
44127;BME280;29786;50.798;7.302;2022-08-19T05:28:09;99010;;;17.32;100
44127;BME280;29786;50.798;7.302;2022-08-19T05:29:09;99020;;;17.35;100
44127;BME280;29786;50.798;7.302;2022-08-19T05:30:09;99010;;;17.36;100
44127;BME280;29786;50.798;7.302;2022-08-19T05:31:09;99020;;;17.37;100
44127;BME280;29786;50.798;7.302;2022-08-19T05:32:09;99020;;;17.4;100
44127;BME280;29786;50.798;7.302;2022-08-19T05:33:09;99020;;;17.37;100
44127;BME280;29786;50.798;7.302;2022-08-19T05:34:09;99020;;;17.37;100
44127;BME280;29786;50.798;7.302;2022-08-19T05:35:09;99020;;;17.36;100
44127;BME280;29786;50.798;7.302;2022-08-19T05:36:09;99020;;;17.36;100
44127;BME280;29786;50.798;7.302;2022-08-19T05:37:09;99020;;;17.37;100
44127;BME280;29786;50.798;7.302;2022-08-19T05:38:09;99020;;;17.37;100
44127;BME280;29786;50.798;7.302;2022-08-19T05:39:12;99020;;;17.41;100
44127;BME280;29786;50.798;7.302;2022-08-19T05:40:09;99010;;;17.45;100
44127;BME280;29786;50.798;7.302;2022-08-19T05:41:09;99020;;;17.49;100